sensor_id;sensor_type;location;lat;lon;timestamp;temperature;humidity
19085;DHT22;9675;51.538;6.728;2022-12-18T00:01:22;-2.50;99.90
19085;DHT22;9675;51.538;6.728;2022-12-18T00:03:59;-2.60;99.90
19085;DHT22;9675;51.538;6.728;2022-12-18T00:06:28;-2.60;99.90
19085;DHT22;9675;51.538;6.728;2022-12-18T00:08:57;-2.70;99.90
19085;DHT22;9675;51.538;6.728;2022-12-18T00:11:26;-2.70;99.90
19085;DHT22;9675;51.538;6.728;2022-12-18T00:13:56;-2.70;99.90
19085;DHT22;9675;51.538;6.728;2022-12-18T00:16:25;-2.70;99.90
19085;DHT22;9675;51.538;6.728;2022-12-18T00:18:57;-2.70;99.90
19085;DHT22;9675;51.538;6.728;2022-12-18T00:21:25;-2.80;99.90
19085;DHT22;9675;51.538;6.728;2022-12-18T00:23:52;-2.70;99.90
19085;DHT22;9675;51.538;6.728;2022-12-18T00:26:21;-2.70;99.90
19085;DHT22;9675;51.538;6.728;2022-12-18T00:28:50;-2.70;99.90
19085;DHT22;9675;51.538;6.728;2022-12-18T00:31:19;-2.80;99.90
19085;DHT22;9675;51.538;6.728;2022-12-18T00:33:49;-2.80;99.90
19085;DHT22;9675;51.538;6.728;2022-12-18T00:36:20;-2.80;99.90
19085;DHT22;9675;51.538;6.728;2022-12-18T00:38:48;-2.80;99.90
19085;DHT22;9675;51.538;6.728;2022-12-18T00:41:17;-2.80;99.90
19085;DHT22;9675;51.538;6.728;2022-12-18T00:44:06;-2.90;99.90
19085;DHT22;9675;51.538;6.728;2022-12-18T00:46:33;-2.80;99.90
19085;DHT22;9675;51.538;6.728;2022-12-18T00:49:00;-2.80;99.90
19085;DHT22;9675;51.538;6.728;2022-12-18T00:51:29;-2.90;99.90
19085;DHT22;9675;51.538;6.728;2022-12-18T00:53:56;-2.90;99.90
19085;DHT22;9675;51.538;6.728;2022-12-18T00:56:23;-2.90;99.90
19085;DHT22;9675;51.538;6.728;2022-12-18T00:58:51;-2.90;99.90
19085;DHT22;9675;51.538;6.728;2022-12-18T01:01:18;-2.90;99.90
19085;DHT22;9675;51.538;6.728;2022-12-18T01:03:45;-2.80;99.90
19085;DHT22;9675;51.538;6.728;2022-12-18T01:06:15;-2.90;99.90
19085;DHT22;9675;51.538;6.728;2022-12-18T01:08:44;-2.90;99.90
19085;DHT22;9675;51.538;6.728;2022-12-18T01:11:14;-2.90;99.90
19085;DHT22;9675;51.538;6.728;2022-12-18T01:13:43;-2.90;99.90
19085;DHT22;9675;51.538;6.728;2022-12-18T01:16:11;-3.00;99.90
19085;DHT22;9675;51.538;6.728;2022-12-18T01:18:39;-3.00;99.90
19085;DHT22;9675;51.538;6.728;2022-12-18T01:21:08;-3.00;99.90
19085;DHT22;9675;51.538;6.728;2022-12-18T01:23:36;-3.00;99.90
19085;DHT22;9675;51.538;6.728;2022-12-18T01:26:08;-3.00;99.90
19085;DHT22;9675;51.538;6.728;2022-12-18T01:28:37;-3.00;99.90
19085;DHT22;9675;51.538;6.728;2022-12-18T01:31:16;-3.00;99.90
19085;DHT22;9675;51.538;6.728;2022-12-18T01:33:45;-3.00;99.90
19085;DHT22;9675;51.538;6.728;2022-12-18T01:36:17;-3.00;99.90
19085;DHT22;9675;51.538;6.728;2022-12-18T01:38:46;-3.00;99.90
19085;DHT22;9675;51.538;6.728;2022-12-18T01:41:16;-2.90;99.90
19085;DHT22;9675;51.538;6.728;2022-12-18T01:43:48;-2.90;99.90
19085;DHT22;9675;51.538;6.728;2022-12-18T01:46:19;-2.80;99.90
19085;DHT22;9675;51.538;6.728;2022-12-18T01:48:49;-2.80;99.90
19085;DHT22;9675;51.538;6.728;2022-12-18T01:51:20;-2.80;99.90
19085;DHT22;9675;51.538;6.728;2022-12-18T01:53:47;-2.90;99.90
19085;DHT22;9675;51.538;6.728;2022-12-18T01:56:18;-2.90;99.90
19085;DHT22;9675;51.538;6.728;2022-12-18T01:58:53;-3.00;99.90
19085;DHT22;9675;51.538;6.728;2022-12-18T02:01:25;-3.00;99.90
19085;DHT22;9675;51.538;6.728;2022-12-18T02:03:53;-3.00;99.90
19085;DHT22;9675;51.538;6.728;2022-12-18T02:06:24;-3.00;99.90
19085;DHT22;9675;51.538;6.728;2022-12-18T02:09:08;-3.00;99.90
19085;DHT22;9675;51.538;6.728;2022-12-18T02:11:48;-3.00;99.90
19085;DHT22;9675;51.538;6.728;2022-12-18T02:14:21;-3.00;99.90
19085;DHT22;9675;51.538;6.728;2022-12-18T02:16:59;-3.00;99.90
19085;DHT22;9675;51.538;6.728;2022-12-18T02:19:42;-3.10;99.90
19085;DHT22;9675;51.538;6.728;2022-12-18T02:22:25;-3.00;99.90
19085;DHT22;9675;51.538;6.728;2022-12-18T02:25:10;-3.00;99.90
19085;DHT22;9675;51.538;6.728;2022-12-18T02:27:50;-3.10;99.90
19085;DHT22;9675;51.538;6.728;2022-12-18T02:30:18;-3.10;99.90
19085;DHT22;9675;51.538;6.728;2022-12-18T02:32:49;-3.10;99.90
19085;DHT22;9675;51.538;6.728;2022-12-18T02:35:22;-3.00;99.90
19085;DHT22;9675;51.538;6.728;2022-12-18T02:37:51;-3.10;99.90
19085;DHT22;9675;51.538;6.728;2022-12-18T02:40:24;-3.10;99.90
19085;DHT22;9675;51.538;6.728;2022-12-18T02:42:55;-3.10;99.90
19085;DHT22;9675;51.538;6.728;2022-12-18T02:45:29;-3.10;99.90
19085;DHT22;9675;51.538;6.728;2022-12-18T02:47:56;-3.10;99.90
19085;DHT22;9675;51.538;6.728;2022-12-18T02:50:29;-3.00;99.90
19085;DHT22;9675;51.538;6.728;2022-12-18T02:53:08;-3.00;99.90
19085;DHT22;9675;51.538;6.728;2022-12-18T02:55:51;-3.00;99.90
19085;DHT22;9675;51.538;6.728;2022-12-18T02:58:32;-3.00;99.90
19085;DHT22;9675;51.538;6.728;2022-12-18T03:01:11;-3.00;99.90
19085;DHT22;9675;51.538;6.728;2022-12-18T03:03:49;-3.00;99.90
19085;DHT22;9675;51.538;6.728;2022-12-18T03:06:25;-3.10;99.90
19085;DHT22;9675;51.538;6.728;2022-12-18T03:08:59;-3.10;99.90
19085;DHT22;9675;51.538;6.728;2022-12-18T03:11:33;-3.10;99.90
19085;DHT22;9675;51.538;6.728;2022-12-18T03:14:32;-3.10;99.90
19085;DHT22;9675;51.538;6.728;2022-12-18T03:17:02;-3.10;99.90
19085;DHT22;9675;51.538;6.728;2022-12-18T03:19:32;-3.10;99.90
19085;DHT22;9675;51.538;6.728;2022-12-18T03:22:02;-3.10;99.90
19085;DHT22;9675;51.538;6.728;2022-12-18T03:24:32;-3.20;99.90
19085;DHT22;9675;51.538;6.728;2022-12-18T03:27:08;-3.10;99.90
19085;DHT22;9675;51.538;6.728;2022-12-18T03:29:43;-3.10;99.90
19085;DHT22;9675;51.538;6.728;2022-12-18T03:32:20;-3.10;99.90
19085;DHT22;9675;51.538;6.728;2022-12-18T03:34:54;-3.10;99.90
19085;DHT22;9675;51.538;6.728;2022-12-18T03:37:25;-3.00;99.90
19085;DHT22;9675;51.538;6.728;2022-12-18T03:39:52;-3.00;99.90
19085;DHT22;9675;51.538;6.728;2022-12-18T03:42:25;-3.10;99.90
19085;DHT22;9675;51.538;6.728;2022-12-18T03:45:03;-3.10;99.90
19085;DHT22;9675;51.538;6.728;2022-12-18T03:47:39;-3.10;99.90
19085;DHT22;9675;51.538;6.728;2022-12-18T03:50:15;-3.10;99.90
19085;DHT22;9675;51.538;6.728;2022-12-18T03:52:48;-3.10;99.90
19085;DHT22;9675;51.538;6.728;2022-12-18T03:55:21;-3.10;99.90
19085;DHT22;9675;51.538;6.728;2022-12-18T03:57:51;-3.10;99.90
19085;DHT22;9675;51.538;6.728;2022-12-18T04:00:21;-3.10;99.90
19085;DHT22;9675;51.538;6.728;2022-12-18T04:02:51;-3.10;99.90
19085;DHT22;9675;51.538;6.728;2022-12-18T04:05:22;-3.00;99.90
19085;DHT22;9675;51.538;6.728;2022-12-18T04:07:53;-3.00;99.90
19085;DHT22;9675;51.538;6.728;2022-12-18T04:10:21;-3.00;99.90
19085;DHT22;9675;51.538;6.728;2022-12-18T04:12:48;-3.00;99.90
19085;DHT22;9675;51.538;6.728;2022-12-18T04:15:15;-3.10;99.90
19085;DHT22;9675;51.538;6.728;2022-12-18T04:17:48;-3.10;99.90
19085;DHT22;9675;51.538;6.728;2022-12-18T04:20:16;-3.10;99.90
19085;DHT22;9675;51.538;6.728;2022-12-18T04:22:43;-3.10;99.90
19085;DHT22;9675;51.538;6.728;2022-12-18T04:25:11;-3.10;99.90
19085;DHT22;9675;51.538;6.728;2022-12-18T04:27:39;-3.20;99.90
19085;DHT22;9675;51.538;6.728;2022-12-18T04:30:06;-3.20;99.90
19085;DHT22;9675;51.538;6.728;2022-12-18T04:32:34;-3.20;99.90
19085;DHT22;9675;51.538;6.728;2022-12-18T04:35:04;-3.20;99.90
19085;DHT22;9675;51.538;6.728;2022-12-18T04:37:33;-3.20;99.90
19085;DHT22;9675;51.538;6.728;2022-12-18T04:40:04;-3.20;99.90
19085;DHT22;9675;51.538;6.728;2022-12-18T04:42:32;-3.20;99.90
19085;DHT22;9675;51.538;6.728;2022-12-18T04:44:59;-3.20;99.90
19085;DHT22;9675;51.538;6.728;2022-12-18T04:47:26;-3.20;99.90
19085;DHT22;9675;51.538;6.728;2022-12-18T04:49:53;-3.10;99.90
19085;DHT22;9675;51.538;6.728;2022-12-18T04:52:21;-3.10;99.90
19085;DHT22;9675;51.538;6.728;2022-12-18T04:54:48;-3.00;99.90
19085;DHT22;9675;51.538;6.728;2022-12-18T04:57:15;-3.00;99.90
19085;DHT22;9675;51.538;6.728;2022-12-18T04:59:43;-3.10;99.90
19085;DHT22;9675;51.538;6.728;2022-12-18T05:02:10;-3.10;99.90
19085;DHT22;9675;51.538;6.728;2022-12-18T05:04:37;-3.00;99.90
19085;DHT22;9675;51.538;6.728;2022-12-18T05:07:05;-3.00;99.90
19085;DHT22;9675;51.538;6.728;2022-12-18T05:09:33;-3.00;99.90
19085;DHT22;9675;51.538;6.728;2022-12-18T05:12:00;-3.00;99.90
19085;DHT22;9675;51.538;6.728;2022-12-18T05:14:27;-3.10;99.90
19085;DHT22;9675;51.538;6.728;2022-12-18T05:16:55;-3.10;99.90
19085;DHT22;9675;51.538;6.728;2022-12-18T05:19:22;-3.10;99.90
19085;DHT22;9675;51.538;6.728;2022-12-18T05:21:49;-3.10;99.90
19085;DHT22;9675;51.538;6.728;2022-12-18T05:24:16;-3.10;99.90
19085;DHT22;9675;51.538;6.728;2022-12-18T05:26:44;-3.10;99.90
19085;DHT22;9675;51.538;6.728;2022-12-18T05:29:11;-3.10;99.90
19085;DHT22;9675;51.538;6.728;2022-12-18T05:31:38;-3.00;99.90
19085;DHT22;9675;51.538;6.728;2022-12-18T05:34:06;-3.00;99.90
19085;DHT22;9675;51.538;6.728;2022-12-18T05:36:33;-3.00;99.90
19085;DHT22;9675;51.538;6.728;2022-12-18T05:39:00;-3.00;99.90
19085;DHT22;9675;51.538;6.728;2022-12-18T05:41:27;-3.00;99.90
19085;DHT22;9675;51.538;6.728;2022-12-18T05:43:55;-3.00;99.90
19085;DHT22;9675;51.538;6.728;2022-12-18T05:46:22;-3.00;99.90
19085;DHT22;9675;51.538;6.728;2022-12-18T05:48:49;-3.00;99.90
19085;DHT22;9675;51.538;6.728;2022-12-18T05:51:19;-3.00;99.90
19085;DHT22;9675;51.538;6.728;2022-12-18T05:53:47;-3.00;99.90
19085;DHT22;9675;51.538;6.728;2022-12-18T05:56:19;-3.00;99.90
19085;DHT22;9675;51.538;6.728;2022-12-18T05:58:52;-3.00;99.90
19085;DHT22;9675;51.538;6.728;2022-12-18T06:01:22;-3.00;99.90
19085;DHT22;9675;51.538;6.728;2022-12-18T06:03:51;-3.00;99.90
19085;DHT22;9675;51.538;6.728;2022-12-18T06:06:19;-3.00;99.90
19085;DHT22;9675;51.538;6.728;2022-12-18T06:08:49;-3.00;99.90
19085;DHT22;9675;51.538;6.728;2022-12-18T06:11:19;-3.00;99.90
19085;DHT22;9675;51.538;6.728;2022-12-18T06:13:49;-3.00;99.90
19085;DHT22;9675;51.538;6.728;2022-12-18T06:16:17;-3.00;99.90
19085;DHT22;9675;51.538;6.728;2022-12-18T06:18:45;-3.00;99.90
19085;DHT22;9675;51.538;6.728;2022-12-18T06:21:12;-3.00;99.90
19085;DHT22;9675;51.538;6.728;2022-12-18T06:23:39;-3.00;99.90
19085;DHT22;9675;51.538;6.728;2022-12-18T06:26:09;-3.00;99.90
19085;DHT22;9675;51.538;6.728;2022-12-18T06:28:37;-3.10;99.90
19085;DHT22;9675;51.538;6.728;2022-12-18T06:31:05;-3.10;99.90
19085;DHT22;9675;51.538;6.728;2022-12-18T06:33:32;-3.10;99.90
19085;DHT22;9675;51.538;6.728;2022-12-18T06:36:03;-3.10;99.90
19085;DHT22;9675;51.538;6.728;2022-12-18T06:38:32;-3.10;99.90
19085;DHT22;9675;51.538;6.728;2022-12-18T06:41:00;-3.10;99.90
19085;DHT22;9675;51.538;6.728;2022-12-18T06:43:27;-3.10;99.90
19085;DHT22;9675;51.538;6.728;2022-12-18T06:45:58;-3.10;99.90
19085;DHT22;9675;51.538;6.728;2022-12-18T06:48:25;-3.10;99.90
19085;DHT22;9675;51.538;6.728;2022-12-18T06:50:52;-3.10;99.90
19085;DHT22;9675;51.538;6.728;2022-12-18T06:53:21;-3.20;99.90
19085;DHT22;9675;51.538;6.728;2022-12-18T06:55:48;-3.20;99.90
19085;DHT22;9675;51.538;6.728;2022-12-18T06:58:15;-3.20;99.90
19085;DHT22;9675;51.538;6.728;2022-12-18T07:00:43;-3.20;99.90
19085;DHT22;9675;51.538;6.728;2022-12-18T07:03:10;-3.20;99.90
19085;DHT22;9675;51.538;6.728;2022-12-18T07:05:39;-3.20;99.90
19085;DHT22;9675;51.538;6.728;2022-12-18T07:08:07;-3.20;99.90
19085;DHT22;9675;51.538;6.728;2022-12-18T07:10:41;-3.20;99.90
19085;DHT22;9675;51.538;6.728;2022-12-18T07:13:09;-3.30;99.90
19085;DHT22;9675;51.538;6.728;2022-12-18T07:15:36;-3.30;99.90
19085;DHT22;9675;51.538;6.728;2022-12-18T07:18:03;-3.30;99.90
19085;DHT22;9675;51.538;6.728;2022-12-18T07:20:30;-3.30;99.90
19085;DHT22;9675;51.538;6.728;2022-12-18T07:22:57;-3.30;99.90
19085;DHT22;9675;51.538;6.728;2022-12-18T07:25:24;-3.30;99.90
19085;DHT22;9675;51.538;6.728;2022-12-18T07:27:53;-3.30;99.90
19085;DHT22;9675;51.538;6.728;2022-12-18T07:30:20;-3.30;99.90
19085;DHT22;9675;51.538;6.728;2022-12-18T07:32:47;-3.40;99.90
19085;DHT22;9675;51.538;6.728;2022-12-18T07:35:14;-3.40;99.90
19085;DHT22;9675;51.538;6.728;2022-12-18T07:37:41;-3.40;99.90
19085;DHT22;9675;51.538;6.728;2022-12-18T07:40:10;-3.40;99.90
19085;DHT22;9675;51.538;6.728;2022-12-18T07:42:37;-3.40;99.90
19085;DHT22;9675;51.538;6.728;2022-12-18T07:45:07;-3.40;99.90
19085;DHT22;9675;51.538;6.728;2022-12-18T07:47:35;-3.40;99.90
19085;DHT22;9675;51.538;6.728;2022-12-18T07:50:02;-3.40;99.90
19085;DHT22;9675;51.538;6.728;2022-12-18T07:52:31;-3.40;99.90
19085;DHT22;9675;51.538;6.728;2022-12-18T07:54:58;-3.40;99.90
19085;DHT22;9675;51.538;6.728;2022-12-18T07:57:25;-3.40;99.90
19085;DHT22;9675;51.538;6.728;2022-12-18T07:59:52;-3.40;99.90
19085;DHT22;9675;51.538;6.728;2022-12-18T08:02:20;-3.40;99.90
19085;DHT22;9675;51.538;6.728;2022-12-18T08:04:47;-3.40;99.90
19085;DHT22;9675;51.538;6.728;2022-12-18T08:07:14;-3.40;99.90
19085;DHT22;9675;51.538;6.728;2022-12-18T08:09:41;-3.40;99.90
19085;DHT22;9675;51.538;6.728;2022-12-18T08:12:08;-3.40;99.90
19085;DHT22;9675;51.538;6.728;2022-12-18T08:14:35;-3.40;99.90
19085;DHT22;9675;51.538;6.728;2022-12-18T08:17:02;-3.40;99.90
19085;DHT22;9675;51.538;6.728;2022-12-18T08:19:31;-3.40;99.90
19085;DHT22;9675;51.538;6.728;2022-12-18T08:21:58;-3.40;99.90
19085;DHT22;9675;51.538;6.728;2022-12-18T08:24:25;-3.40;99.90
19085;DHT22;9675;51.538;6.728;2022-12-18T08:26:53;-3.40;99.90
19085;DHT22;9675;51.538;6.728;2022-12-18T08:29:20;-3.40;99.90
19085;DHT22;9675;51.538;6.728;2022-12-18T08:31:47;-3.40;99.90
19085;DHT22;9675;51.538;6.728;2022-12-18T08:34:14;-3.40;99.90
19085;DHT22;9675;51.538;6.728;2022-12-18T08:36:42;-3.40;99.90
19085;DHT22;9675;51.538;6.728;2022-12-18T08:39:10;-3.40;99.90
19085;DHT22;9675;51.538;6.728;2022-12-18T08:41:39;-3.40;99.90
19085;DHT22;9675;51.538;6.728;2022-12-18T08:44:07;-3.40;99.90
19085;DHT22;9675;51.538;6.728;2022-12-18T08:46:51;-3.40;99.90
19085;DHT22;9675;51.538;6.728;2022-12-18T08:49:20;-3.40;99.90
19085;DHT22;9675;51.538;6.728;2022-12-18T08:51:48;-3.40;99.90
19085;DHT22;9675;51.538;6.728;2022-12-18T08:54:21;-3.40;99.90
19085;DHT22;9675;51.538;6.728;2022-12-18T08:56:48;-3.40;99.90
19085;DHT22;9675;51.538;6.728;2022-12-18T08:59:16;-3.40;99.90
19085;DHT22;9675;51.538;6.728;2022-12-18T09:01:43;-3.40;99.90
19085;DHT22;9675;51.538;6.728;2022-12-18T09:04:11;-3.40;99.90
19085;DHT22;9675;51.538;6.728;2022-12-18T09:06:39;-3.50;99.90
19085;DHT22;9675;51.538;6.728;2022-12-18T09:09:09;-3.60;99.90
19085;DHT22;9675;51.538;6.728;2022-12-18T09:11:37;-3.70;99.90
19085;DHT22;9675;51.538;6.728;2022-12-18T09:14:04;-3.70;99.90
19085;DHT22;9675;51.538;6.728;2022-12-18T09:16:31;-3.80;99.90
19085;DHT22;9675;51.538;6.728;2022-12-18T09:19:01;-3.80;99.90
19085;DHT22;9675;51.538;6.728;2022-12-18T09:21:30;-3.80;99.90
19085;DHT22;9675;51.538;6.728;2022-12-18T09:23:59;-3.80;99.90
19085;DHT22;9675;51.538;6.728;2022-12-18T09:26:28;-3.80;99.90
19085;DHT22;9675;51.538;6.728;2022-12-18T09:28:56;-3.70;99.90
19085;DHT22;9675;51.538;6.728;2022-12-18T09:31:24;-3.70;99.90
19085;DHT22;9675;51.538;6.728;2022-12-18T09:33:51;-3.70;99.90
19085;DHT22;9675;51.538;6.728;2022-12-18T09:36:18;-3.70;99.90
19085;DHT22;9675;51.538;6.728;2022-12-18T09:38:45;-3.70;99.90
19085;DHT22;9675;51.538;6.728;2022-12-18T09:44:16;-3.60;99.90
19085;DHT22;9675;51.538;6.728;2022-12-18T09:46:53;-3.60;99.90
19085;DHT22;9675;51.538;6.728;2022-12-18T09:49:28;-3.60;99.90
19085;DHT22;9675;51.538;6.728;2022-12-18T09:52:02;-3.50;99.90
19085;DHT22;9675;51.538;6.728;2022-12-18T09:54:35;-3.50;99.90
19085;DHT22;9675;51.538;6.728;2022-12-18T09:57:06;-3.50;99.90
19085;DHT22;9675;51.538;6.728;2022-12-18T09:59:41;-3.40;99.90
19085;DHT22;9675;51.538;6.728;2022-12-18T10:02:14;-3.40;99.90
19085;DHT22;9675;51.538;6.728;2022-12-18T10:04:43;-3.40;99.90
19085;DHT22;9675;51.538;6.728;2022-12-18T10:07:26;-3.30;99.90
19085;DHT22;9675;51.538;6.728;2022-12-18T10:10:06;-3.30;99.90
19085;DHT22;9675;51.538;6.728;2022-12-18T10:12:44;-3.30;99.90
19085;DHT22;9675;51.538;6.728;2022-12-18T10:15:24;-3.20;99.90
19085;DHT22;9675;51.538;6.728;2022-12-18T10:18:04;-3.20;99.90
19085;DHT22;9675;51.538;6.728;2022-12-18T10:20:49;-3.20;99.90
19085;DHT22;9675;51.538;6.728;2022-12-18T10:23:24;-3.20;99.90
19085;DHT22;9675;51.538;6.728;2022-12-18T10:25:58;-3.10;99.90
19085;DHT22;9675;51.538;6.728;2022-12-18T10:28:30;-3.10;99.90
19085;DHT22;9675;51.538;6.728;2022-12-18T10:30:59;-3.00;99.90
19085;DHT22;9675;51.538;6.728;2022-12-18T10:33:29;-3.00;99.90
19085;DHT22;9675;51.538;6.728;2022-12-18T10:35:57;-3.00;99.90
19085;DHT22;9675;51.538;6.728;2022-12-18T10:38:27;-3.00;99.90
19085;DHT22;9675;51.538;6.728;2022-12-18T10:40:59;-3.00;99.90
19085;DHT22;9675;51.538;6.728;2022-12-18T10:43:31;-3.00;99.90
19085;DHT22;9675;51.538;6.728;2022-12-18T10:46:12;-2.90;99.90
19085;DHT22;9675;51.538;6.728;2022-12-18T10:48:52;-2.90;99.90
19085;DHT22;9675;51.538;6.728;2022-12-18T10:51:23;-2.80;99.90
19085;DHT22;9675;51.538;6.728;2022-12-18T10:53:56;-2.80;99.90
19085;DHT22;9675;51.538;6.728;2022-12-18T10:56:27;-2.80;99.90
19085;DHT22;9675;51.538;6.728;2022-12-18T10:59:00;-2.80;99.90
19085;DHT22;9675;51.538;6.728;2022-12-18T11:01:44;-2.70;99.90
19085;DHT22;9675;51.538;6.728;2022-12-18T11:04:18;-2.60;99.90
19085;DHT22;9675;51.538;6.728;2022-12-18T11:06:55;-2.60;99.90
19085;DHT22;9675;51.538;6.728;2022-12-18T11:09:26;-2.60;99.90
19085;DHT22;9675;51.538;6.728;2022-12-18T11:11:56;-2.60;99.90
19085;DHT22;9675;51.538;6.728;2022-12-18T11:14:28;-2.60;99.90
19085;DHT22;9675;51.538;6.728;2022-12-18T11:16:58;-2.60;99.90
19085;DHT22;9675;51.538;6.728;2022-12-18T11:19:32;-2.50;99.90
19085;DHT22;9675;51.538;6.728;2022-12-18T11:22:02;-2.50;99.90
19085;DHT22;9675;51.538;6.728;2022-12-18T11:24:53;-2.50;99.90
19085;DHT22;9675;51.538;6.728;2022-12-18T11:27:23;-2.50;99.90
19085;DHT22;9675;51.538;6.728;2022-12-18T11:29:51;-2.40;99.90
19085;DHT22;9675;51.538;6.728;2022-12-18T11:32:30;-2.40;99.90
19085;DHT22;9675;51.538;6.728;2022-12-18T11:35:09;-2.30;99.90
19085;DHT22;9675;51.538;6.728;2022-12-18T11:37:43;-2.30;99.90
19085;DHT22;9675;51.538;6.728;2022-12-18T11:40:19;-2.30;99.90
19085;DHT22;9675;51.538;6.728;2022-12-18T11:42:57;-2.20;99.90
19085;DHT22;9675;51.538;6.728;2022-12-18T11:45:33;-2.20;99.90
19085;DHT22;9675;51.538;6.728;2022-12-18T11:48:09;-2.10;99.90
19085;DHT22;9675;51.538;6.728;2022-12-18T11:50:48;-2.10;99.90
19085;DHT22;9675;51.538;6.728;2022-12-18T11:53:18;-2.00;99.90
19085;DHT22;9675;51.538;6.728;2022-12-18T11:56:04;-2.00;99.90
19085;DHT22;9675;51.538;6.728;2022-12-18T11:58:48;-2.00;99.90
19085;DHT22;9675;51.538;6.728;2022-12-18T12:01:32;-1.90;99.90
19085;DHT22;9675;51.538;6.728;2022-12-18T12:04:27;-1.90;99.90
19085;DHT22;9675;51.538;6.728;2022-12-18T12:07:17;-1.80;99.90
19085;DHT22;9675;51.538;6.728;2022-12-18T12:10:03;-1.70;99.90
19085;DHT22;9675;51.538;6.728;2022-12-18T12:12:55;-1.70;99.90
19085;DHT22;9675;51.538;6.728;2022-12-18T12:15:39;-1.60;99.90
19085;DHT22;9675;51.538;6.728;2022-12-18T12:18:22;-1.60;99.90
19085;DHT22;9675;51.538;6.728;2022-12-18T12:21:01;-1.60;99.90
19085;DHT22;9675;51.538;6.728;2022-12-18T12:23:40;-1.50;99.90
19085;DHT22;9675;51.538;6.728;2022-12-18T12:26:21;-1.50;99.90
19085;DHT22;9675;51.538;6.728;2022-12-18T12:29:20;-1.40;99.90
19085;DHT22;9675;51.538;6.728;2022-12-18T12:32:12;-1.40;99.90
19085;DHT22;9675;51.538;6.728;2022-12-18T12:35:03;-1.40;99.90
19085;DHT22;9675;51.538;6.728;2022-12-18T12:37:46;-1.40;99.90
19085;DHT22;9675;51.538;6.728;2022-12-18T12:40:24;-1.30;99.90
19085;DHT22;9675;51.538;6.728;2022-12-18T12:42:56;-1.30;99.90
19085;DHT22;9675;51.538;6.728;2022-12-18T12:45:44;-1.30;99.90
19085;DHT22;9675;51.538;6.728;2022-12-18T12:48:20;-1.20;99.90
19085;DHT22;9675;51.538;6.728;2022-12-18T12:51:00;-1.20;99.90
19085;DHT22;9675;51.538;6.728;2022-12-18T12:53:34;-1.10;99.90
19085;DHT22;9675;51.538;6.728;2022-12-18T12:56:05;-1.10;99.90
19085;DHT22;9675;51.538;6.728;2022-12-18T12:58:37;-1.10;99.90
19085;DHT22;9675;51.538;6.728;2022-12-18T13:01:17;-1.00;99.90
19085;DHT22;9675;51.538;6.728;2022-12-18T13:03:58;-1.00;99.90
19085;DHT22;9675;51.538;6.728;2022-12-18T13:06:42;-1.00;99.90
19085;DHT22;9675;51.538;6.728;2022-12-18T13:09:12;-0.90;99.90
19085;DHT22;9675;51.538;6.728;2022-12-18T13:11:41;-0.90;99.90
19085;DHT22;9675;51.538;6.728;2022-12-18T13:14:29;-0.90;99.90
19085;DHT22;9675;51.538;6.728;2022-12-18T13:20:09;-0.80;99.90
19085;DHT22;9675;51.538;6.728;2022-12-18T13:22:42;-0.70;99.90
19085;DHT22;9675;51.538;6.728;2022-12-18T13:25:29;-0.70;99.90
19085;DHT22;9675;51.538;6.728;2022-12-18T13:28:04;-0.70;99.90
19085;DHT22;9675;51.538;6.728;2022-12-18T13:30:48;-0.60;99.90
19085;DHT22;9675;51.538;6.728;2022-12-18T13:33:41;-0.60;99.90
19085;DHT22;9675;51.538;6.728;2022-12-18T13:36:26;-0.60;99.90
19085;DHT22;9675;51.538;6.728;2022-12-18T13:39:24;-0.60;99.90
19085;DHT22;9675;51.538;6.728;2022-12-18T13:42:38;-0.60;99.90
19085;DHT22;9675;51.538;6.728;2022-12-18T13:45:40;-0.50;99.90
19085;DHT22;9675;51.538;6.728;2022-12-18T13:48:16;-0.50;99.90
19085;DHT22;9675;51.538;6.728;2022-12-18T13:50:49;-0.50;99.90
19085;DHT22;9675;51.538;6.728;2022-12-18T13:53:23;-0.50;99.90
19085;DHT22;9675;51.538;6.728;2022-12-18T13:55:54;-0.40;99.90
19085;DHT22;9675;51.538;6.728;2022-12-18T13:58:21;-0.40;99.90
19085;DHT22;9675;51.538;6.728;2022-12-18T14:00:48;-0.40;99.90
19085;DHT22;9675;51.538;6.728;2022-12-18T14:03:21;-0.40;99.90
19085;DHT22;9675;51.538;6.728;2022-12-18T14:05:56;-0.30;99.90
19085;DHT22;9675;51.538;6.728;2022-12-18T14:08:32;-0.30;99.90
19085;DHT22;9675;51.538;6.728;2022-12-18T14:11:04;-0.30;99.90
19085;DHT22;9675;51.538;6.728;2022-12-18T14:13:36;-0.30;99.90
19085;DHT22;9675;51.538;6.728;2022-12-18T14:16:06;-0.30;99.90
19085;DHT22;9675;51.538;6.728;2022-12-18T14:18:41;-0.20;99.90
19085;DHT22;9675;51.538;6.728;2022-12-18T14:21:19;-0.20;99.90
19085;DHT22;9675;51.538;6.728;2022-12-18T14:23:49;-0.20;99.90
19085;DHT22;9675;51.538;6.728;2022-12-18T14:26:32;-0.20;99.90
19085;DHT22;9675;51.538;6.728;2022-12-18T14:29:01;-0.20;99.90
19085;DHT22;9675;51.538;6.728;2022-12-18T14:31:45;-0.20;99.90
19085;DHT22;9675;51.538;6.728;2022-12-18T14:34:15;-0.10;99.90
19085;DHT22;9675;51.538;6.728;2022-12-18T14:36:52;-0.20;99.90
19085;DHT22;9675;51.538;6.728;2022-12-18T14:39:21;-0.10;99.90
19085;DHT22;9675;51.538;6.728;2022-12-18T14:41:50;-0.10;99.90
19085;DHT22;9675;51.538;6.728;2022-12-18T14:44:18;-0.10;99.90
19085;DHT22;9675;51.538;6.728;2022-12-18T14:46:47;-0.10;99.90
19085;DHT22;9675;51.538;6.728;2022-12-18T14:49:21;-0.10;99.90
19085;DHT22;9675;51.538;6.728;2022-12-18T14:51:53;-0.10;99.90
19085;DHT22;9675;51.538;6.728;2022-12-18T14:54:22;0.00;99.90
19085;DHT22;9675;51.538;6.728;2022-12-18T14:56:56;0.00;99.90
19085;DHT22;9675;51.538;6.728;2022-12-18T14:59:28;0.00;99.90
19085;DHT22;9675;51.538;6.728;2022-12-18T15:02:04;0.00;99.90
19085;DHT22;9675;51.538;6.728;2022-12-18T15:04:42;0.00;99.90
19085;DHT22;9675;51.538;6.728;2022-12-18T15:07:13;0.00;99.90
19085;DHT22;9675;51.538;6.728;2022-12-18T15:09:43;0.00;99.90
19085;DHT22;9675;51.538;6.728;2022-12-18T15:12:24;0.10;99.90
19085;DHT22;9675;51.538;6.728;2022-12-18T15:14:54;0.10;99.90
19085;DHT22;9675;51.538;6.728;2022-12-18T15:17:22;0.10;99.90
19085;DHT22;9675;51.538;6.728;2022-12-18T15:19:52;0.10;99.90
19085;DHT22;9675;51.538;6.728;2022-12-18T15:22:27;0.10;99.90
19085;DHT22;9675;51.538;6.728;2022-12-18T15:24:57;0.10;99.90
19085;DHT22;9675;51.538;6.728;2022-12-18T15:27:29;0.10;99.90
19085;DHT22;9675;51.538;6.728;2022-12-18T15:30:19;0.20;99.90
19085;DHT22;9675;51.538;6.728;2022-12-18T15:32:49;0.10;99.90
19085;DHT22;9675;51.538;6.728;2022-12-18T15:35:22;0.10;99.90
19085;DHT22;9675;51.538;6.728;2022-12-18T15:37:51;0.20;99.90
19085;DHT22;9675;51.538;6.728;2022-12-18T15:40:20;0.20;99.90
19085;DHT22;9675;51.538;6.728;2022-12-18T15:42:53;0.20;99.90
19085;DHT22;9675;51.538;6.728;2022-12-18T15:45:39;0.10;99.90
19085;DHT22;9675;51.538;6.728;2022-12-18T15:48:17;0.20;99.90
19085;DHT22;9675;51.538;6.728;2022-12-18T15:50:48;0.20;99.90
19085;DHT22;9675;51.538;6.728;2022-12-18T15:53:16;0.20;99.90
19085;DHT22;9675;51.538;6.728;2022-12-18T15:55:44;0.20;99.90
19085;DHT22;9675;51.538;6.728;2022-12-18T15:58:30;0.20;99.90
19085;DHT22;9675;51.538;6.728;2022-12-18T16:00:58;0.30;99.90
19085;DHT22;9675;51.538;6.728;2022-12-18T16:03:26;0.20;99.90
19085;DHT22;9675;51.538;6.728;2022-12-18T16:05:53;0.20;99.90
19085;DHT22;9675;51.538;6.728;2022-12-18T16:08:20;0.30;99.90
19085;DHT22;9675;51.538;6.728;2022-12-18T16:10:47;0.30;99.90
19085;DHT22;9675;51.538;6.728;2022-12-18T16:13:16;0.30;99.90
19085;DHT22;9675;51.538;6.728;2022-12-18T16:15:47;0.30;99.90
19085;DHT22;9675;51.538;6.728;2022-12-18T16:18:14;0.30;99.90
19085;DHT22;9675;51.538;6.728;2022-12-18T16:20:41;0.30;99.90
19085;DHT22;9675;51.538;6.728;2022-12-18T16:23:08;0.30;99.90
19085;DHT22;9675;51.538;6.728;2022-12-18T16:25:35;0.30;99.90